sensor_id;sensor_type;location;lat;lon;timestamp;P1;durP1;ratioP1;P2;durP2;ratioP2
8710;SDS011;4392;47.400;8.062;2022-10-14T00:01:20;35.10;;;32.43;;
8710;SDS011;4392;47.400;8.062;2022-10-14T00:03:48;37.07;;;34.53;;
8710;SDS011;4392;47.400;8.062;2022-10-14T00:06:15;36.90;;;34.40;;
8710;SDS011;4392;47.400;8.062;2022-10-14T00:08:43;36.97;;;34.30;;
8710;SDS011;4392;47.400;8.062;2022-10-14T00:11:12;36.53;;;34.20;;
8710;SDS011;4392;47.400;8.062;2022-10-14T00:13:40;65.03;;;57.53;;
8710;SDS011;4392;47.400;8.062;2022-10-14T00:16:13;231.43;;;164.50;;
8710;SDS011;4392;47.400;8.062;2022-10-14T00:18:40;75.37;;;63.30;;
8710;SDS011;4392;47.400;8.062;2022-10-14T00:21:06;61.13;;;54.73;;
8710;SDS011;4392;47.400;8.062;2022-10-14T00:23:35;67.47;;;58.33;;
8710;SDS011;4392;47.400;8.062;2022-10-14T00:26:00;50.43;;;45.40;;
8710;SDS011;4392;47.400;8.062;2022-10-14T00:28:26;43.60;;;39.90;;
8710;SDS011;4392;47.400;8.062;2022-10-14T00:30:55;41.33;;;38.20;;
8710;SDS011;4392;47.400;8.062;2022-10-14T00:33:23;40.30;;;37.13;;
8710;SDS011;4392;47.400;8.062;2022-10-14T00:35:53;40.40;;;37.30;;
8710;SDS011;4392;47.400;8.062;2022-10-14T00:38:20;40.67;;;37.10;;
8710;SDS011;4392;47.400;8.062;2022-10-14T00:40:46;39.30;;;36.13;;
8710;SDS011;4392;47.400;8.062;2022-10-14T00:43:15;39.63;;;36.67;;
8710;SDS011;4392;47.400;8.062;2022-10-14T00:45:40;40.73;;;37.53;;
8710;SDS011;4392;47.400;8.062;2022-10-14T00:48:06;304.90;;;187.20;;
8710;SDS011;4392;47.400;8.062;2022-10-14T00:50:33;340.60;;;216.77;;
8710;SDS011;4392;47.400;8.062;2022-10-14T00:53:00;239.70;;;151.27;;
8710;SDS011;4392;47.400;8.062;2022-10-14T00:55:27;183.13;;;123.70;;
8710;SDS011;4392;47.400;8.062;2022-10-14T00:57:54;101.53;;;75.93;;
8710;SDS011;4392;47.400;8.062;2022-10-14T01:00:21;76.57;;;59.63;;
8710;SDS011;4392;47.400;8.062;2022-10-14T01:02:47;56.57;;;50.47;;
8710;SDS011;4392;47.400;8.062;2022-10-14T01:05:13;50.83;;;45.47;;
8710;SDS011;4392;47.400;8.062;2022-10-14T01:07:58;46.43;;;42.00;;
8710;SDS011;4392;47.400;8.062;2022-10-14T01:10:44;43.20;;;39.50;;
8710;SDS011;4392;47.400;8.062;2022-10-14T01:13:24;42.47;;;38.33;;
8710;SDS011;4392;47.400;8.062;2022-10-14T01:19:01;42.37;;;37.97;;
8710;SDS011;4392;47.400;8.062;2022-10-14T01:21:59;41.10;;;37.17;;
8710;SDS011;4392;47.400;8.062;2022-10-14T01:25:05;39.17;;;36.10;;
8710;SDS011;4392;47.400;8.062;2022-10-14T01:30:20;58.20;;;52.23;;
8710;SDS011;4392;47.400;8.062;2022-10-14T01:32:50;42.53;;;39.03;;
8710;SDS011;4392;47.400;8.062;2022-10-14T01:41:21;40.47;;;37.00;;
8710;SDS011;4392;47.400;8.062;2022-10-14T01:43:56;41.23;;;37.70;;
8710;SDS011;4392;47.400;8.062;2022-10-14T01:46:25;150.10;;;111.77;;
8710;SDS011;4392;47.400;8.062;2022-10-14T01:49:14;78.10;;;66.80;;
8710;SDS011;4392;47.400;8.062;2022-10-14T01:51:45;91.27;;;72.30;;
8710;SDS011;4392;47.400;8.062;2022-10-14T01:54:18;69.63;;;58.27;;
8710;SDS011;4392;47.400;8.062;2022-10-14T01:56:49;57.37;;;51.30;;
8710;SDS011;4392;47.400;8.062;2022-10-14T01:59:17;46.90;;;42.60;;
8710;SDS011;4392;47.400;8.062;2022-10-14T02:01:45;44.83;;;40.57;;
8710;SDS011;4392;47.400;8.062;2022-10-14T02:04:15;40.93;;;37.43;;
8710;SDS011;4392;47.400;8.062;2022-10-14T02:06:45;41.80;;;38.17;;
8710;SDS011;4392;47.400;8.062;2022-10-14T02:15:04;39.10;;;36.20;;
8710;SDS011;4392;47.400;8.062;2022-10-14T02:20:34;185.27;;;131.20;;
8710;SDS011;4392;47.400;8.062;2022-10-14T02:23:07;92.47;;;76.27;;
8710;SDS011;4392;47.400;8.062;2022-10-14T02:25:39;47.40;;;43.27;;
8710;SDS011;4392;47.400;8.062;2022-10-14T02:28:10;50.43;;;45.43;;
8710;SDS011;4392;47.400;8.062;2022-10-14T02:30:42;205.10;;;139.87;;
8710;SDS011;4392;47.400;8.062;2022-10-14T02:33:12;145.50;;;102.90;;
8710;SDS011;4392;47.400;8.062;2022-10-14T02:35:39;81.33;;;68.33;;
8710;SDS011;4392;47.400;8.062;2022-10-14T02:38:06;51.53;;;46.47;;
8710;SDS011;4392;47.400;8.062;2022-10-14T02:40:37;210.37;;;135.37;;
8710;SDS011;4392;47.400;8.062;2022-10-14T02:43:06;176.40;;;126.13;;
8710;SDS011;4392;47.400;8.062;2022-10-14T02:45:35;93.57;;;72.87;;
8710;SDS011;4392;47.400;8.062;2022-10-14T02:48:02;58.27;;;51.67;;
8710;SDS011;4392;47.400;8.062;2022-10-14T02:50:30;45.93;;;41.93;;
8710;SDS011;4392;47.400;8.062;2022-10-14T02:52:56;41.10;;;37.70;;
8710;SDS011;4392;47.400;8.062;2022-10-14T02:55:22;41.17;;;38.00;;
8710;SDS011;4392;47.400;8.062;2022-10-14T02:57:48;40.70;;;37.80;;
8710;SDS011;4392;47.400;8.062;2022-10-14T03:00:15;39.40;;;36.23;;
8710;SDS011;4392;47.400;8.062;2022-10-14T03:02:41;128.87;;;95.83;;
8710;SDS011;4392;47.400;8.062;2022-10-14T03:05:07;107.57;;;83.37;;
8710;SDS011;4392;47.400;8.062;2022-10-14T03:07:33;102.37;;;78.27;;
8710;SDS011;4392;47.400;8.062;2022-10-14T03:09:59;89.23;;;69.73;;
8710;SDS011;4392;47.400;8.062;2022-10-14T03:12:26;69.13;;;59.00;;
8710;SDS011;4392;47.400;8.062;2022-10-14T03:14:51;50.23;;;45.10;;
8710;SDS011;4392;47.400;8.062;2022-10-14T03:17:17;48.73;;;43.87;;
8710;SDS011;4392;47.400;8.062;2022-10-14T03:19:43;46.30;;;41.90;;
8710;SDS011;4392;47.400;8.062;2022-10-14T03:22:10;43.57;;;39.87;;
8710;SDS011;4392;47.400;8.062;2022-10-14T03:24:35;136.80;;;105.20;;
8710;SDS011;4392;47.400;8.062;2022-10-14T03:27:01;238.40;;;166.47;;
8710;SDS011;4392;47.400;8.062;2022-10-14T03:29:27;139.00;;;107.17;;
8710;SDS011;4392;47.400;8.062;2022-10-14T03:31:53;101.47;;;81.33;;
8710;SDS011;4392;47.400;8.062;2022-10-14T03:34:19;59.97;;;53.63;;
8710;SDS011;4392;47.400;8.062;2022-10-14T03:36:44;54.57;;;49.23;;
8710;SDS011;4392;47.400;8.062;2022-10-14T03:39:10;49.73;;;45.03;;
8710;SDS011;4392;47.400;8.062;2022-10-14T03:41:37;47.03;;;42.83;;
8710;SDS011;4392;47.400;8.062;2022-10-14T03:44:04;48.30;;;43.83;;
8710;SDS011;4392;47.400;8.062;2022-10-14T03:46:30;46.17;;;41.93;;
8710;SDS011;4392;47.400;8.062;2022-10-14T03:48:56;45.60;;;41.47;;
8710;SDS011;4392;47.400;8.062;2022-10-14T03:51:24;41.97;;;38.53;;
8710;SDS011;4392;47.400;8.062;2022-10-14T03:53:49;42.00;;;38.60;;
8710;SDS011;4392;47.400;8.062;2022-10-14T03:56:15;39.57;;;36.53;;
8710;SDS011;4392;47.400;8.062;2022-10-14T03:58:41;37.97;;;35.17;;
8710;SDS011;4392;47.400;8.062;2022-10-14T04:01:07;38.80;;;35.47;;
8710;SDS011;4392;47.400;8.062;2022-10-14T04:03:32;38.67;;;35.77;;
8710;SDS011;4392;47.400;8.062;2022-10-14T04:05:58;456.70;;;300.10;;
8710;SDS011;4392;47.400;8.062;2022-10-14T04:08:24;325.60;;;229.30;;
8710;SDS011;4392;47.400;8.062;2022-10-14T04:10:52;245.10;;;166.87;;
8710;SDS011;4392;47.400;8.062;2022-10-14T04:13:18;191.67;;;127.70;;
8710;SDS011;4392;47.400;8.062;2022-10-14T04:15:45;170.00;;;114.40;;
8710;SDS011;4392;47.400;8.062;2022-10-14T04:18:10;153.87;;;105.03;;
8710;SDS011;4392;47.400;8.062;2022-10-14T04:20:37;109.97;;;80.83;;
8710;SDS011;4392;47.400;8.062;2022-10-14T04:23:03;91.73;;;72.80;;
8710;SDS011;4392;47.400;8.062;2022-10-14T04:25:31;58.70;;;52.50;;
8710;SDS011;4392;47.400;8.062;2022-10-14T04:27:58;47.97;;;43.00;;
8710;SDS011;4392;47.400;8.062;2022-10-14T04:30:24;45.17;;;40.97;;
8710;SDS011;4392;47.400;8.062;2022-10-14T04:32:50;54.13;;;47.33;;
8710;SDS011;4392;47.400;8.062;2022-10-14T04:35:15;46.00;;;41.37;;
8710;SDS011;4392;47.400;8.062;2022-10-14T04:37:41;41.97;;;37.93;;
8710;SDS011;4392;47.400;8.062;2022-10-14T04:40:07;41.37;;;37.87;;
8710;SDS011;4392;47.400;8.062;2022-10-14T04:42:33;39.17;;;35.97;;
8710;SDS011;4392;47.400;8.062;2022-10-14T04:45:05;39.73;;;36.43;;
8710;SDS011;4392;47.400;8.062;2022-10-14T04:47:31;37.83;;;35.10;;
8710;SDS011;4392;47.400;8.062;2022-10-14T04:49:57;39.27;;;35.67;;
8710;SDS011;4392;47.400;8.062;2022-10-14T04:52:22;39.43;;;35.83;;
8710;SDS011;4392;47.400;8.062;2022-10-14T04:54:48;38.90;;;35.80;;
8710;SDS011;4392;47.400;8.062;2022-10-14T04:57:19;41.10;;;37.50;;
8710;SDS011;4392;47.400;8.062;2022-10-14T04:59:44;40.90;;;37.40;;
8710;SDS011;4392;47.400;8.062;2022-10-14T05:02:10;39.27;;;36.13;;
8710;SDS011;4392;47.400;8.062;2022-10-14T05:04:36;38.47;;;35.23;;
8710;SDS011;4392;47.400;8.062;2022-10-14T05:07:02;39.57;;;36.27;;
8710;SDS011;4392;47.400;8.062;2022-10-14T05:09:28;40.03;;;36.93;;
8710;SDS011;4392;47.400;8.062;2022-10-14T05:11:53;39.50;;;36.07;;
8710;SDS011;4392;47.400;8.062;2022-10-14T05:14:19;36.93;;;34.23;;
8710;SDS011;4392;47.400;8.062;2022-10-14T05:16:46;36.80;;;33.87;;
8710;SDS011;4392;47.400;8.062;2022-10-14T05:19:11;36.50;;;33.90;;
8710;SDS011;4392;47.400;8.062;2022-10-14T05:21:37;34.47;;;32.37;;
8710;SDS011;4392;47.400;8.062;2022-10-14T05:24:03;35.73;;;33.30;;
8710;SDS011;4392;47.400;8.062;2022-10-14T05:26:29;35.23;;;33.00;;
8710;SDS011;4392;47.400;8.062;2022-10-14T05:28:55;36.67;;;34.00;;
8710;SDS011;4392;47.400;8.062;2022-10-14T05:31:21;36.10;;;33.27;;
8710;SDS011;4392;47.400;8.062;2022-10-14T05:33:47;34.90;;;32.23;;
8710;SDS011;4392;47.400;8.062;2022-10-14T05:36:12;35.50;;;32.80;;
8710;SDS011;4392;47.400;8.062;2022-10-14T05:38:38;35.33;;;32.90;;
8710;SDS011;4392;47.400;8.062;2022-10-14T05:41:04;34.90;;;32.30;;
8710;SDS011;4392;47.400;8.062;2022-10-14T05:43:30;34.53;;;32.30;;
8710;SDS011;4392;47.400;8.062;2022-10-14T05:45:55;34.60;;;32.27;;
8710;SDS011;4392;47.400;8.062;2022-10-14T05:48:21;34.50;;;32.13;;
8710;SDS011;4392;47.400;8.062;2022-10-14T05:50:48;33.77;;;31.73;;
8710;SDS011;4392;47.400;8.062;2022-10-14T05:53:14;35.07;;;32.57;;
8710;SDS011;4392;47.400;8.062;2022-10-14T05:55:40;35.03;;;32.73;;
8710;SDS011;4392;47.400;8.062;2022-10-14T05:58:05;34.40;;;32.07;;
8710;SDS011;4392;47.400;8.062;2022-10-14T06:00:33;34.23;;;32.10;;
8710;SDS011;4392;47.400;8.062;2022-10-14T06:02:58;35.77;;;33.07;;
8710;SDS011;4392;47.400;8.062;2022-10-14T06:05:24;36.90;;;33.60;;
8710;SDS011;4392;47.400;8.062;2022-10-14T06:07:50;35.83;;;33.43;;
8710;SDS011;4392;47.400;8.062;2022-10-14T06:10:16;35.63;;;33.10;;
8710;SDS011;4392;47.400;8.062;2022-10-14T06:12:44;34.93;;;32.63;;
8710;SDS011;4392;47.400;8.062;2022-10-14T06:15:10;35.23;;;32.83;;
8710;SDS011;4392;47.400;8.062;2022-10-14T06:17:36;36.57;;;33.60;;
8710;SDS011;4392;47.400;8.062;2022-10-14T06:20:01;35.67;;;33.07;;
8710;SDS011;4392;47.400;8.062;2022-10-14T06:22:30;36.53;;;33.90;;
8710;SDS011;4392;47.400;8.062;2022-10-14T06:24:55;36.20;;;33.50;;
8710;SDS011;4392;47.400;8.062;2022-10-14T06:27:24;36.43;;;33.33;;
8710;SDS011;4392;47.400;8.062;2022-10-14T06:29:49;36.70;;;33.50;;
8710;SDS011;4392;47.400;8.062;2022-10-14T06:32:15;37.93;;;35.27;;
8710;SDS011;4392;47.400;8.062;2022-10-14T06:34:41;35.50;;;33.07;;
8710;SDS011;4392;47.400;8.062;2022-10-14T06:37:13;35.10;;;32.80;;
8710;SDS011;4392;47.400;8.062;2022-10-14T06:39:39;35.50;;;33.10;;
8710;SDS011;4392;47.400;8.062;2022-10-14T06:42:09;34.90;;;32.70;;
8710;SDS011;4392;47.400;8.062;2022-10-14T06:44:35;34.47;;;32.30;;
8710;SDS011;4392;47.400;8.062;2022-10-14T06:47:00;39.23;;;36.57;;
8710;SDS011;4392;47.400;8.062;2022-10-14T06:49:26;46.93;;;43.03;;
8710;SDS011;4392;47.400;8.062;2022-10-14T06:51:52;45.60;;;41.53;;
8710;SDS011;4392;47.400;8.062;2022-10-14T06:54:18;42.00;;;38.27;;
8710;SDS011;4392;47.400;8.062;2022-10-14T06:56:43;38.80;;;35.93;;
8710;SDS011;4392;47.400;8.062;2022-10-14T06:59:09;38.07;;;35.30;;
8710;SDS011;4392;47.400;8.062;2022-10-14T07:01:35;38.70;;;36.00;;
8710;SDS011;4392;47.400;8.062;2022-10-14T07:04:02;39.83;;;36.97;;
8710;SDS011;4392;47.400;8.062;2022-10-14T07:06:28;40.57;;;37.47;;
8710;SDS011;4392;47.400;8.062;2022-10-14T07:08:54;37.47;;;34.90;;
8710;SDS011;4392;47.400;8.062;2022-10-14T07:11:20;35.27;;;32.83;;
8710;SDS011;4392;47.400;8.062;2022-10-14T07:13:45;35.87;;;33.27;;
8710;SDS011;4392;47.400;8.062;2022-10-14T07:16:11;35.87;;;32.83;;
8710;SDS011;4392;47.400;8.062;2022-10-14T07:18:37;35.37;;;33.07;;
8710;SDS011;4392;47.400;8.062;2022-10-14T07:21:03;35.70;;;33.23;;
8710;SDS011;4392;47.400;8.062;2022-10-14T07:23:30;35.70;;;33.17;;
8710;SDS011;4392;47.400;8.062;2022-10-14T07:25:56;54.07;;;49.63;;
8710;SDS011;4392;47.400;8.062;2022-10-14T07:28:23;41.67;;;38.47;;
8710;SDS011;4392;47.400;8.062;2022-10-14T07:31:22;53.53;;;48.57;;
8710;SDS011;4392;47.400;8.062;2022-10-14T07:33:41;51.17;;;46.47;;
8710;SDS011;4392;47.400;8.062;2022-10-14T07:36:08;46.00;;;42.33;;
8710;SDS011;4392;47.400;8.062;2022-10-14T07:38:37;41.80;;;38.60;;
8710;SDS011;4392;47.400;8.062;2022-10-14T07:41:08;41.63;;;38.17;;
8710;SDS011;4392;47.400;8.062;2022-10-14T07:43:45;38.40;;;35.73;;
8710;SDS011;4392;47.400;8.062;2022-10-14T07:46:13;36.93;;;34.47;;
8710;SDS011;4392;47.400;8.062;2022-10-14T07:48:41;37.03;;;34.53;;
8710;SDS011;4392;47.400;8.062;2022-10-14T07:51:07;37.80;;;35.20;;
8710;SDS011;4392;47.400;8.062;2022-10-14T07:53:36;35.93;;;33.67;;
8710;SDS011;4392;47.400;8.062;2022-10-14T07:56:01;35.27;;;32.87;;
8710;SDS011;4392;47.400;8.062;2022-10-14T07:58:28;43.47;;;39.77;;
8710;SDS011;4392;47.400;8.062;2022-10-14T08:00:55;40.97;;;37.40;;
8710;SDS011;4392;47.400;8.062;2022-10-14T08:03:22;38.10;;;35.23;;
8710;SDS011;4392;47.400;8.062;2022-10-14T08:06:02;37.07;;;34.27;;
8710;SDS011;4392;47.400;8.062;2022-10-14T08:08:29;35.97;;;33.00;;
8710;SDS011;4392;47.400;8.062;2022-10-14T08:11:02;47.37;;;43.80;;
8710;SDS011;4392;47.400;8.062;2022-10-14T08:13:30;42.00;;;38.83;;
8710;SDS011;4392;47.400;8.062;2022-10-14T08:15:56;49.27;;;45.17;;
8710;SDS011;4392;47.400;8.062;2022-10-14T08:18:22;49.80;;;45.53;;
8710;SDS011;4392;47.400;8.062;2022-10-14T08:20:48;43.20;;;39.80;;
8710;SDS011;4392;47.400;8.062;2022-10-14T08:23:17;38.73;;;35.97;;
8710;SDS011;4392;47.400;8.062;2022-10-14T08:25:43;37.13;;;34.30;;
8710;SDS011;4392;47.400;8.062;2022-10-14T08:28:09;35.07;;;32.70;;
8710;SDS011;4392;47.400;8.062;2022-10-14T08:30:35;35.33;;;33.20;;
8710;SDS011;4392;47.400;8.062;2022-10-14T08:33:01;36.63;;;33.97;;
8710;SDS011;4392;47.400;8.062;2022-10-14T08:35:26;35.70;;;33.13;;
8710;SDS011;4392;47.400;8.062;2022-10-14T08:37:59;36.20;;;33.80;;
8710;SDS011;4392;47.400;8.062;2022-10-14T08:40:29;35.80;;;33.23;;
8710;SDS011;4392;47.400;8.062;2022-10-14T08:43:23;35.50;;;33.03;;
8710;SDS011;4392;47.400;8.062;2022-10-14T08:45:56;35.93;;;33.33;;
8710;SDS011;4392;47.400;8.062;2022-10-14T08:48:33;35.17;;;32.67;;
8710;SDS011;4392;47.400;8.062;2022-10-14T08:51:10;36.40;;;33.90;;
8710;SDS011;4392;47.400;8.062;2022-10-14T08:53:50;36.93;;;34.53;;
8710;SDS011;4392;47.400;8.062;2022-10-14T08:56:22;35.63;;;33.33;;
8710;SDS011;4392;47.400;8.062;2022-10-14T08:58:49;35.83;;;33.37;;
8710;SDS011;4392;47.400;8.062;2022-10-14T09:01:33;35.17;;;32.60;;
8710;SDS011;4392;47.400;8.062;2022-10-14T09:04:11;37.33;;;34.40;;
8710;SDS011;4392;47.400;8.062;2022-10-14T09:06:43;36.30;;;33.70;;
8710;SDS011;4392;47.400;8.062;2022-10-14T09:09:14;37.27;;;34.50;;
8710;SDS011;4392;47.400;8.062;2022-10-14T09:11:48;34.87;;;32.37;;
8710;SDS011;4392;47.400;8.062;2022-10-14T09:14:18;35.20;;;33.00;;
8710;SDS011;4392;47.400;8.062;2022-10-14T09:16:49;34.93;;;32.83;;
8710;SDS011;4392;47.400;8.062;2022-10-14T09:19:25;34.63;;;32.43;;
8710;SDS011;4392;47.400;8.062;2022-10-14T09:22:09;35.60;;;33.23;;
8710;SDS011;4392;47.400;8.062;2022-10-14T09:24:38;35.17;;;32.97;;
8710;SDS011;4392;47.400;8.062;2022-10-14T09:27:16;34.50;;;32.60;;
8710;SDS011;4392;47.400;8.062;2022-10-14T09:32:26;36.07;;;33.87;;
8710;SDS011;4392;47.400;8.062;2022-10-14T09:34:58;35.97;;;33.50;;
8710;SDS011;4392;47.400;8.062;2022-10-14T09:37:34;34.57;;;32.37;;
8710;SDS011;4392;47.400;8.062;2022-10-14T09:40:25;34.60;;;32.10;;
8710;SDS011;4392;47.400;8.062;2022-10-14T09:51:30;36.20;;;33.60;;
8710;SDS011;4392;47.400;8.062;2022-10-14T09:53:58;35.73;;;33.37;;
8710;SDS011;4392;47.400;8.062;2022-10-14T09:56:33;35.03;;;32.73;;
8710;SDS011;4392;47.400;8.062;2022-10-14T09:59:01;35.30;;;33.00;;
8710;SDS011;4392;47.400;8.062;2022-10-14T10:01:38;34.83;;;32.63;;
8710;SDS011;4392;47.400;8.062;2022-10-14T10:06:56;34.97;;;32.70;;
8710;SDS011;4392;47.400;8.062;2022-10-14T10:09:24;34.23;;;32.17;;
8710;SDS011;4392;47.400;8.062;2022-10-14T10:11:50;34.67;;;32.37;;
8710;SDS011;4392;47.400;8.062;2022-10-14T10:14:27;34.17;;;31.97;;
8710;SDS011;4392;47.400;8.062;2022-10-14T10:19:36;33.93;;;31.87;;
8710;SDS011;4392;47.400;8.062;2022-10-14T10:27:28;34.27;;;32.30;;
8710;SDS011;4392;47.400;8.062;2022-10-14T10:49:57;31.23;;;29.50;;
8710;SDS011;4392;47.400;8.062;2022-10-14T11:01:22;30.80;;;29.30;;
8710;SDS011;4392;47.400;8.062;2022-10-14T11:04:00;30.57;;;29.07;;
8710;SDS011;4392;47.400;8.062;2022-10-14T11:09:59;30.43;;;28.83;;
8710;SDS011;4392;47.400;8.062;2022-10-14T11:12:57;30.87;;;29.47;;
8710;SDS011;4392;47.400;8.062;2022-10-14T11:15:26;30.17;;;28.77;;
8710;SDS011;4392;47.400;8.062;2022-10-14T11:18:03;30.80;;;29.10;;
8710;SDS011;4392;47.400;8.062;2022-10-14T11:21:04;31.13;;;29.33;;
8710;SDS011;4392;47.400;8.062;2022-10-14T11:32:00;30.30;;;28.80;;
8710;SDS011;4392;47.400;8.062;2022-10-14T11:34:47;30.20;;;28.70;;
8710;SDS011;4392;47.400;8.062;2022-10-14T11:39:49;31.20;;;29.60;;
8710;SDS011;4392;47.400;8.062;2022-10-14T11:45:09;31.73;;;30.10;;
8710;SDS011;4392;47.400;8.062;2022-10-14T11:47:42;31.27;;;29.40;;
8710;SDS011;4392;47.400;8.062;2022-10-14T11:50:25;31.03;;;29.50;;
8710;SDS011;4392;47.400;8.062;2022-10-14T11:56:10;31.47;;;29.87;;
8710;SDS011;4392;47.400;8.062;2022-10-14T11:58:58;31.27;;;29.63;;
8710;SDS011;4392;47.400;8.062;2022-10-14T12:01:35;31.17;;;29.63;;
8710;SDS011;4392;47.400;8.062;2022-10-14T12:04:25;31.23;;;29.73;;
8710;SDS011;4392;47.400;8.062;2022-10-14T12:07:07;31.03;;;29.53;;
8710;SDS011;4392;47.400;8.062;2022-10-14T12:10:03;30.60;;;29.17;;
8710;SDS011;4392;47.400;8.062;2022-10-14T12:12:38;31.40;;;29.70;;
8710;SDS011;4392;47.400;8.062;2022-10-14T12:15:12;31.17;;;29.57;;
8710;SDS011;4392;47.400;8.062;2022-10-14T12:17:52;32.10;;;30.10;;
8710;SDS011;4392;47.400;8.062;2022-10-14T12:20:26;31.57;;;29.87;;
8710;SDS011;4392;47.400;8.062;2022-10-14T12:22:55;31.00;;;29.40;;
8710;SDS011;4392;47.400;8.062;2022-10-14T12:25:22;30.30;;;28.83;;
8710;SDS011;4392;47.400;8.062;2022-10-14T12:27:51;31.30;;;29.80;;
8710;SDS011;4392;47.400;8.062;2022-10-14T12:30:38;31.40;;;29.90;;
8710;SDS011;4392;47.400;8.062;2022-10-14T12:35:57;30.80;;;29.20;;
8710;SDS011;4392;47.400;8.062;2022-10-14T12:38:24;31.00;;;29.20;;
8710;SDS011;4392;47.400;8.062;2022-10-14T12:40:51;30.57;;;28.97;;
8710;SDS011;4392;47.400;8.062;2022-10-14T12:43:30;30.43;;;29.03;;
8710;SDS011;4392;47.400;8.062;2022-10-14T12:45:58;30.67;;;29.10;;
8710;SDS011;4392;47.400;8.062;2022-10-14T12:51:59;30.17;;;28.73;;
8710;SDS011;4392;47.400;8.062;2022-10-14T12:54:27;33.13;;;31.03;;
8710;SDS011;4392;47.400;8.062;2022-10-14T12:57:02;31.90;;;30.20;;
8710;SDS011;4392;47.400;8.062;2022-10-14T12:59:33;30.20;;;28.80;;
8710;SDS011;4392;47.400;8.062;2022-10-14T13:03:03;29.87;;;28.33;;
8710;SDS011;4392;47.400;8.062;2022-10-14T13:05:01;30.23;;;28.60;;
8710;SDS011;4392;47.400;8.062;2022-10-14T13:07:42;30.47;;;28.97;;
8710;SDS011;4392;47.400;8.062;2022-10-14T13:12:50;31.73;;;29.87;;
8710;SDS011;4392;47.400;8.062;2022-10-14T13:21:03;30.07;;;28.67;;
8710;SDS011;4392;47.400;8.062;2022-10-14T13:23:33;31.47;;;29.30;;
8710;SDS011;4392;47.400;8.062;2022-10-14T13:39:57;29.73;;;28.33;;
8710;SDS011;4392;47.400;8.062;2022-10-14T13:42:31;30.10;;;28.60;;
8710;SDS011;4392;47.400;8.062;2022-10-14T13:45:04;29.83;;;28.53;;
8710;SDS011;4392;47.400;8.062;2022-10-14T13:47:46;29.97;;;28.47;;
8710;SDS011;4392;47.400;8.062;2022-10-14T13:50:14;29.70;;;28.20;;
8710;SDS011;4392;47.400;8.062;2022-10-14T13:52:54;29.50;;;28.23;;
8710;SDS011;4392;47.400;8.062;2022-10-14T13:55:27;29.80;;;28.43;;
8710;SDS011;4392;47.400;8.062;2022-10-14T14:00:32;29.97;;;28.57;;
8710;SDS011;4392;47.400;8.062;2022-10-14T14:03:12;30.00;;;28.60;;
8710;SDS011;4392;47.400;8.062;2022-10-14T14:05:49;29.00;;;27.70;;
8710;SDS011;4392;47.400;8.062;2022-10-14T14:08:16;30.13;;;28.73;;
8710;SDS011;4392;47.400;8.062;2022-10-14T14:10:50;29.70;;;28.23;;
8710;SDS011;4392;47.400;8.062;2022-10-14T14:13:21;30.30;;;28.90;;
8710;SDS011;4392;47.400;8.062;2022-10-14T14:15:49;29.73;;;28.33;;
8710;SDS011;4392;47.400;8.062;2022-10-14T14:18:24;30.33;;;28.93;;
8710;SDS011;4392;47.400;8.062;2022-10-14T14:20:58;29.70;;;28.17;;
8710;SDS011;4392;47.400;8.062;2022-10-14T14:23:27;30.13;;;28.63;;
8710;SDS011;4392;47.400;8.062;2022-10-14T14:25:54;29.97;;;28.57;;
8710;SDS011;4392;47.400;8.062;2022-10-14T14:28:21;30.13;;;28.77;;
8710;SDS011;4392;47.400;8.062;2022-10-14T14:30:56;31.37;;;29.53;;
8710;SDS011;4392;47.400;8.062;2022-10-14T14:33:29;30.67;;;29.17;;
8710;SDS011;4392;47.400;8.062;2022-10-14T14:35:59;30.23;;;28.73;;
8710;SDS011;4392;47.400;8.062;2022-10-14T14:38:33;29.93;;;28.53;;
8710;SDS011;4392;47.400;8.062;2022-10-14T14:41:27;29.23;;;27.93;;
8710;SDS011;4392;47.400;8.062;2022-10-14T14:43:56;30.40;;;29.00;;
8710;SDS011;4392;47.400;8.062;2022-10-14T14:46:37;30.23;;;28.93;;
8710;SDS011;4392;47.400;8.062;2022-10-14T14:49:05;30.23;;;28.77;;
8710;SDS011;4392;47.400;8.062;2022-10-14T14:51:32;29.63;;;28.33;;
8710;SDS011;4392;47.400;8.062;2022-10-14T14:54:00;29.90;;;28.60;;
8710;SDS011;4392;47.400;8.062;2022-10-14T14:56:28;30.13;;;28.73;;
8710;SDS011;4392;47.400;8.062;2022-10-14T14:59:07;31.17;;;29.53;;
8710;SDS011;4392;47.400;8.062;2022-10-14T15:01:56;30.70;;;28.90;;
8710;SDS011;4392;47.400;8.062;2022-10-14T15:04:25;30.37;;;28.87;;
8710;SDS011;4392;47.400;8.062;2022-10-14T15:07:05;30.13;;;28.83;;
8710;SDS011;4392;47.400;8.062;2022-10-14T15:12:13;30.80;;;29.10;;
8710;SDS011;4392;47.400;8.062;2022-10-14T15:14:45;30.13;;;28.73;;
8710;SDS011;4392;47.400;8.062;2022-10-14T15:19:54;30.80;;;29.30;;
8710;SDS011;4392;47.400;8.062;2022-10-14T15:22:31;31.77;;;29.97;;
8710;SDS011;4392;47.400;8.062;2022-10-14T15:24:59;31.13;;;29.53;;
8710;SDS011;4392;47.400;8.062;2022-10-14T15:33:10;31.17;;;29.67;;
8710;SDS011;4392;47.400;8.062;2022-10-14T15:35:42;144.80;;;107.13;;
8710;SDS011;4392;47.400;8.062;2022-10-14T15:38:13;55.47;;;50.10;;
8710;SDS011;4392;47.400;8.062;2022-10-14T15:40:41;49.77;;;45.13;;
8710;SDS011;4392;47.400;8.062;2022-10-14T15:43:12;67.23;;;60.10;;
8710;SDS011;4392;47.400;8.062;2022-10-14T15:45:40;59.30;;;53.23;;
8710;SDS011;4392;47.400;8.062;2022-10-14T15:48:07;68.00;;;60.57;;
8710;SDS011;4392;47.400;8.062;2022-10-14T15:50:46;81.77;;;69.47;;
8710;SDS011;4392;47.400;8.062;2022-10-14T15:53:12;85.03;;;72.37;;
8710;SDS011;4392;47.400;8.062;2022-10-14T15:55:38;81.83;;;71.77;;
8710;SDS011;4392;47.400;8.062;2022-10-14T15:58:04;106.20;;;84.07;;
8710;SDS011;4392;47.400;8.062;2022-10-14T16:00:35;80.70;;;71.67;;
8710;SDS011;4392;47.400;8.062;2022-10-14T16:03:01;83.57;;;70.93;;
8710;SDS011;4392;47.400;8.062;2022-10-14T16:05:28;89.70;;;77.17;;
8710;SDS011;4392;47.400;8.062;2022-10-14T16:07:54;152.43;;;110.97;;
8710;SDS011;4392;47.400;8.062;2022-10-14T16:10:29;94.70;;;80.17;;
8710;SDS011;4392;47.400;8.062;2022-10-14T16:12:57;83.23;;;73.83;;
8710;SDS011;4392;47.400;8.062;2022-10-14T16:18:13;78.93;;;70.43;;
8710;SDS011;4392;47.400;8.062;2022-10-14T16:20:42;77.97;;;69.43;;
8710;SDS011;4392;47.400;8.062;2022-10-14T16:23:13;62.53;;;56.00;;
8710;SDS011;4392;47.400;8.062;2022-10-14T16:25:40;86.20;;;73.77;;
8710;SDS011;4392;47.400;8.062;2022-10-14T16:28:09;71.90;;;64.07;;
8710;SDS011;4392;47.400;8.062;2022-10-14T16:30:36;87.63;;;74.93;;
8710;SDS011;4392;47.400;8.062;2022-10-14T16:33:04;209.27;;;152.77;;
8710;SDS011;4392;47.400;8.062;2022-10-14T16:35:31;146.80;;;111.40;;
8710;SDS011;4392;47.400;8.062;2022-10-14T16:37:57;74.07;;;64.70;;
8710;SDS011;4392;47.400;8.062;2022-10-14T16:40:23;48.10;;;43.83;;
8710;SDS011;4392;47.400;8.062;2022-10-14T16:42:49;41.27;;;38.17;;
8710;SDS011;4392;47.400;8.062;2022-10-14T16:45:16;38.20;;;35.40;;
8710;SDS011;4392;47.400;8.062;2022-10-14T16:47:42;36.00;;;33.77;;
8710;SDS011;4392;47.400;8.062;2022-10-14T16:50:08;34.80;;;32.63;;
8710;SDS011;4392;47.400;8.062;2022-10-14T16:52:34;35.17;;;33.17;;
8710;SDS011;4392;47.400;8.062;2022-10-14T16:55:19;97.53;;;78.33;;
8710;SDS011;4392;47.400;8.062;2022-10-14T16:57:46;215.33;;;146.50;;
8710;SDS011;4392;47.400;8.062;2022-10-14T17:00:15;407.80;;;275.23;;
8710;SDS011;4392;47.400;8.062;2022-10-14T17:02:42;292.13;;;204.10;;
8710;SDS011;4392;47.400;8.062;2022-10-14T17:05:07;162.90;;;113.13;;
8710;SDS011;4392;47.400;8.062;2022-10-14T17:07:34;58.20;;;52.07;;
8710;SDS011;4392;47.400;8.062;2022-10-14T17:10:00;47.03;;;43.03;;
8710;SDS011;4392;47.400;8.062;2022-10-14T17:12:26;40.27;;;37.30;;
8710;SDS011;4392;47.400;8.062;2022-10-14T17:14:52;78.33;;;68.07;;
8710;SDS011;4392;47.400;8.062;2022-10-14T17:17:17;107.97;;;85.50;;
8710;SDS011;4392;47.400;8.062;2022-10-14T17:19:49;113.87;;;95.60;;